Time;durP1;ratioP1;P1;durP2;ratioP2;P2;SDS_P1;SDS_P2;PMS_P1;PMS_P2;Temp;Humidity;BMP_temperature;BMP_pressure;BME280_temperature;BME280_humidity;BME280_pressure;Samples;Min_cycle;Max_cycle;Signal;HPM_P1;HPM_P2
2022/10/06 00:01:43;;;;;;;;;;;21.30;88.40;;;;;;5099385;28;19908;-49
2022/10/06 00:04:09;;;;;;;;;;;21.30;88.40;;;;;;5093239;28;19908;-46
2022/10/06 00:06:34;;;;;;;;;;;21.30;88.40;;;;;;5093643;28;20337;-45
2022/10/06 00:08:59;;;;;;;;;;;21.30;88.40;;;;;;5085952;28;20014;-49
2022/10/06 00:11:25;;;;;;;;;;;21.30;88.40;;;;;;5084350;28;19935;-50
2022/10/06 00:13:50;;;;;;;;;;;21.30;88.10;;;;;;5096868;28;19916;-45
2022/10/06 00:16:20;;;;;;;;;;;21.30;88.40;;;;;;5097026;28;19908;-44
2022/10/06 00:18:45;;;;;;;;;;;21.30;88.50;;;;;;5097046;28;19908;-44
2022/10/06 00:21:11;;;;;;;;;;;21.30;88.20;;;;;;5096484;28;19919;-45
2022/10/06 00:23:36;;;;;;;;;;;21.30;88.30;;;;;;5096861;28;19908;-45
2022/10/06 00:26:02;;;;;;;;;;;21.30;88.20;;;;;;5097923;28;19915;-45
2022/10/06 00:28:27;;;;;;;;;;;21.30;88.10;;;;;;5091107;28;19935;-46
2022/10/06 00:30:55;;;;;;;;;;;21.30;88.00;;;;;;5096572;28;19919;-46
2022/10/06 00:33:20;;;;;;;;;;;21.30;88.00;;;;;;5096283;28;19908;-47
2022/10/06 00:35:46;;;;;;;;;;;21.30;88.20;;;;;;5096390;28;19919;-47
2022/10/06 00:38:14;;;;;;;;;;;21.30;88.20;;;;;;5096403;28;19914;-47
2022/10/06 00:40:47;;;;;;;;;;;21.20;88.20;;;;;;5096720;28;19939;-47
2022/10/06 00:43:31;;;;;;;;;;;21.30;88.40;;;;;;5096139;28;19912;-46
2022/10/06 00:45:57;;;;;;;;;;;21.20;88.20;;;;;;5090929;28;19915;-45
2022/10/06 00:48:24;;;;;;;;;;;21.20;88.60;;;;;;5088517;28;19909;-46
2022/10/06 00:50:52;;;;;;;;;;;21.20;88.70;;;;;;5094803;28;19911;-56
2022/10/06 00:53:19;;;;;;;;;;;21.20;88.10;;;;;;5091676;28;19965;-44
2022/10/06 00:55:44;;;;;;;;;;;21.30;88.50;;;;;;5096369;28;19951;-45
2022/10/06 00:58:10;;;;;;;;;;;21.30;88.60;;;;;;5096073;28;19958;-48
2022/10/06 01:00:35;;;;;;;;;;;21.30;88.40;;;;;;5106926;28;19908;-51
2022/10/06 01:03:17;;;;;;;;;;;21.40;88.20;;;;;;5101125;28;20370;-47
2022/10/06 01:05:46;;;;;;;;;;;21.50;88.00;;;;;;5095996;28;19920;-49
2022/10/06 01:08:12;;;;;;;;;;;21.50;87.80;;;;;;5095949;28;19915;-51
2022/10/06 01:10:37;;;;;;;;;;;21.60;87.80;;;;;;5085195;28;19923;-46
2022/10/06 01:13:03;;;;;;;;;;;21.60;87.60;;;;;;5092526;28;19908;-49
2022/10/06 01:15:28;;;;;;;;;;;21.60;87.50;;;;;;5095911;28;19943;-46
2022/10/06 01:17:56;;;;;;;;;;;21.60;87.50;;;;;;5094046;28;19908;-46
2022/10/06 01:20:22;;;;;;;;;;;21.70;87.60;;;;;;5094195;28;19987;-46
2022/10/06 01:22:50;;;;;;;;;;;21.60;87.30;;;;;;5094933;28;19951;-49
2022/10/06 01:25:16;;;;;;;;;;;21.60;87.40;;;;;;5095090;28;19915;-51
2022/10/06 01:27:45;;;;;;;;;;;21.60;87.40;;;;;;5088338;28;19913;-45
2022/10/06 01:30:16;;;;;;;;;;;21.60;87.50;;;;;;5071544;28;19912;-47
2022/10/06 01:32:41;;;;;;;;;;;21.60;87.60;;;;;;5095598;28;19965;-46
2022/10/06 01:35:07;;;;;;;;;;;21.50;87.60;;;;;;5095320;28;19912;-46
2022/10/06 01:37:33;;;;;;;;;;;21.50;87.80;;;;;;5095340;28;19912;-47
2022/10/06 01:39:58;;;;;;;;;;;21.50;88.00;;;;;;5095189;28;20277;-46
2022/10/06 01:42:24;;;;;;;;;;;21.40;87.90;;;;;;5095558;28;19916;-46
2022/10/06 01:44:49;;;;;;;;;;;21.40;87.90;;;;;;5076907;28;20259;-46
2022/10/06 01:47:15;;;;;;;;;;;21.40;88.10;;;;;;5078905;28;19959;-46
2022/10/06 01:49:41;;;;;;;;;;;21.40;88.00;;;;;;5093117;28;20351;-45
2022/10/06 01:52:06;;;;;;;;;;;21.30;88.00;;;;;;5094783;28;19912;-46
2022/10/06 01:54:32;;;;;;;;;;;21.30;87.90;;;;;;5104008;28;19916;-45
2022/10/06 01:56:57;;;;;;;;;;;21.40;88.00;;;;;;5083393;28;19970;-45
2022/10/06 01:59:23;;;;;;;;;;;21.30;88.00;;;;;;5095478;28;19989;-46
2022/10/06 02:01:49;;;;;;;;;;;21.30;88.10;;;;;;5109790;28;20388;-47
2022/10/06 02:04:14;;;;;;;;;;;21.30;88.20;;;;;;5114933;28;20305;-48
2022/10/06 02:06:39;;;;;;;;;;;21.30;88.10;;;;;;5115519;28;19908;-47
2022/10/06 02:09:05;;;;;;;;;;;21.30;88.20;;;;;;5114994;28;20433;-47
2022/10/06 02:11:30;;;;;;;;;;;21.30;88.10;;;;;;5095617;28;19965;-46
2022/10/06 02:13:56;;;;;;;;;;;21.20;88.10;;;;;;5094588;28;19915;-47
2022/10/06 02:16:22;;;;;;;;;;;21.20;88.20;;;;;;5097182;28;20328;-46
2022/10/06 02:18:47;;;;;;;;;;;21.20;88.20;;;;;;5080882;28;19913;-48
2022/10/06 02:21:14;;;;;;;;;;;21.20;88.20;;;;;;5072485;28;19998;-49
2022/10/06 02:23:40;;;;;;;;;;;21.20;88.30;;;;;;5072357;28;19915;-50
2022/10/06 02:26:05;;;;;;;;;;;21.20;88.40;;;;;;5072053;28;19908;-50
2022/10/06 02:28:31;;;;;;;;;;;21.20;88.40;;;;;;5072257;28;19916;-50
2022/10/06 02:31:01;;;;;;;;;;;21.20;88.40;;;;;;5072320;28;19924;-49
2022/10/06 02:33:26;;;;;;;;;;;21.10;88.40;;;;;;5072331;28;19932;-49
2022/10/06 02:35:55;;;;;;;;;;;21.10;88.50;;;;;;5073447;28;19912;-46
2022/10/06 02:38:21;;;;;;;;;;;21.10;88.50;;;;;;5074621;28;19908;-47
2022/10/06 02:40:47;;;;;;;;;;;21.10;88.60;;;;;;5073411;28;19915;-45
2022/10/06 02:43:12;;;;;;;;;;;21.10;89.20;;;;;;5074076;28;20270;-46
2022/10/06 02:45:38;;;;;;;;;;;21.00;88.60;;;;;;5074298;28;19912;-45
2022/10/06 02:48:03;;;;;;;;;;;21.00;88.70;;;;;;5074118;28;20321;-45
2022/10/06 02:50:28;;;;;;;;;;;21.00;88.70;;;;;;5074066;28;19919;-49
2022/10/06 02:52:54;;;;;;;;;;;21.00;88.70;;;;;;5073829;28;20424;-49
2022/10/06 02:55:20;;;;;;;;;;;21.00;88.80;;;;;;5074105;28;19947;-45
2022/10/06 02:57:45;;;;;;;;;;;20.90;88.80;;;;;;5073763;28;19915;-47
2022/10/06 03:00:11;;;;;;;;;;;20.90;88.80;;;;;;5088753;28;19908;-47
2022/10/06 03:02:36;;;;;;;;;;;20.90;88.90;;;;;;5114201;28;19985;-48
2022/10/06 03:05:02;;;;;;;;;;;20.90;89.00;;;;;;5114650;28;19931;-48
2022/10/06 03:07:27;;;;;;;;;;;20.80;89.00;;;;;;5114498;28;20361;-46
2022/10/06 03:09:53;;;;;;;;;;;20.80;89.10;;;;;;5114319;28;20441;-46
2022/10/06 03:12:18;;;;;;;;;;;20.80;89.70;;;;;;5114365;28;19927;-46
2022/10/06 03:14:44;;;;;;;;;;;20.80;89.20;;;;;;5114327;28;19914;-47
2022/10/06 03:17:09;;;;;;;;;;;20.80;89.20;;;;;;5114144;28;19915;-47
2022/10/06 03:19:36;;;;;;;;;;;20.80;89.30;;;;;;5096299;28;20362;-45
2022/10/06 03:22:02;;;;;;;;;;;20.70;89.30;;;;;;5114141;28;20397;-46
2022/10/06 03:24:27;;;;;;;;;;;20.70;89.40;;;;;;5114046;28;19908;-47
2022/10/06 03:26:53;;;;;;;;;;;20.70;89.60;;;;;;5114273;28;20364;-45
2022/10/06 03:29:18;;;;;;;;;;;20.70;89.70;;;;;;5114090;28;20010;-45
2022/10/06 03:31:44;;;;;;;;;;;20.60;89.70;;;;;;5113898;28;19947;-48
2022/10/06 03:34:12;;;;;;;;;;;20.60;89.80;;;;;;5114159;28;19908;-48
2022/10/06 03:36:38;;;;;;;;;;;20.60;89.90;;;;;;5114209;28;19908;-45
2022/10/06 03:39:04;;;;;;;;;;;20.50;89.80;;;;;;5113823;28;19908;-49
2022/10/06 03:41:30;;;;;;;;;;;20.50;89.90;;;;;;5113849;28;19908;-46
2022/10/06 03:43:56;;;;;;;;;;;20.50;89.90;;;;;;5114265;28;19960;-46
2022/10/06 03:46:23;;;;;;;;;;;20.60;89.90;;;;;;5113824;28;19911;-50
2022/10/06 03:48:49;;;;;;;;;;;20.60;89.90;;;;;;5117620;28;20270;-45
2022/10/06 03:51:17;;;;;;;;;;;20.50;90.00;;;;;;5117850;28;20355;-47
2022/10/06 03:53:46;;;;;;;;;;;20.50;90.00;;;;;;5117985;28;19931;-49
2022/10/06 03:56:13;;;;;;;;;;;20.50;90.20;;;;;;5118272;28;19907;-46
2022/10/06 03:58:40;;;;;;;;;;;20.50;90.00;;;;;;5117589;28;19908;-46
2022/10/06 04:01:11;;;;;;;;;;;20.50;90.00;;;;;;5102659;28;20017;-48
2022/10/06 04:03:37;;;;;;;;;;;20.50;90.00;;;;;;5097053;28;19908;-47
2022/10/06 04:06:04;;;;;;;;;;;20.50;90.00;;;;;;5097125;28;20389;-45
2022/10/06 04:08:30;;;;;;;;;;;20.40;90.10;;;;;;5097198;28;20015;-45
2022/10/06 04:11:03;;;;;;;;;;;20.40;90.10;;;;;;5097144;28;19919;-48
2022/10/06 04:13:28;;;;;;;;;;;20.40;90.10;;;;;;5097230;28;19908;-47
2022/10/06 04:15:54;;;;;;;;;;;20.40;90.10;;;;;;5096871;28;19908;-47
2022/10/06 04:18:19;;;;;;;;;;;20.40;90.10;;;;;;5097086;28;19912;-45
2022/10/06 04:20:44;;;;;;;;;;;20.40;90.10;;;;;;5097276;28;20354;-48
2022/10/06 04:23:10;;;;;;;;;;;20.40;90.10;;;;;;5096895;28;19953;-49
2022/10/06 04:25:35;;;;;;;;;;;20.40;90.10;;;;;;5096462;28;19962;-45
2022/10/06 04:28:01;;;;;;;;;;;20.40;90.10;;;;;;5096750;28;19908;-48
2022/10/06 04:30:26;;;;;;;;;;;20.40;90.10;;;;;;5096337;28;19919;-48
2022/10/06 04:32:52;;;;;;;;;;;20.40;90.10;;;;;;5096631;28;20362;-50
2022/10/06 04:35:18;;;;;;;;;;;20.40;90.10;;;;;;5096634;28;20323;-47
2022/10/06 04:37:43;;;;;;;;;;;20.40;90.00;;;;;;5096410;28;19951;-48
2022/10/06 04:40:09;;;;;;;;;;;20.40;90.00;;;;;;5096541;28;19908;-47
2022/10/06 04:42:35;;;;;;;;;;;20.40;90.00;;;;;;5096389;28;19908;-50
2022/10/06 04:45:01;;;;;;;;;;;20.40;90.00;;;;;;5096321;28;20313;-50
2022/10/06 04:47:27;;;;;;;;;;;20.40;90.00;;;;;;5096317;28;19953;-49
2022/10/06 04:49:52;;;;;;;;;;;20.40;90.00;;;;;;5096092;28;19924;-47
2022/10/06 04:52:18;;;;;;;;;;;20.40;90.10;;;;;;5096340;28;19916;-49
2022/10/06 04:54:44;;;;;;;;;;;20.30;90.00;;;;;;5096613;28;20361;-47
2022/10/06 04:57:09;;;;;;;;;;;20.40;90.00;;;;;;5096022;28;19908;-50
2022/10/06 05:02:19;;;;;;;;;;;20.40;90.00;;;;;;5116223;28;19914;-48
2022/10/06 05:04:45;;;;;;;;;;;20.40;89.90;;;;;;5116160;28;20274;-47
2022/10/06 05:07:10;;;;;;;;;;;20.40;89.90;;;;;;5116353;28;19919;-47
2022/10/06 05:09:36;;;;;;;;;;;20.40;90.00;;;;;;5116237;28;19911;-45
2022/10/06 05:12:01;;;;;;;;;;;20.40;89.90;;;;;;5116323;28;19911;-50
2022/10/06 05:14:27;;;;;;;;;;;20.40;89.90;;;;;;5115896;28;19915;-46
2022/10/06 05:16:52;;;;;;;;;;;20.40;90.00;;;;;;5116257;28;19911;-47
2022/10/06 05:19:18;;;;;;;;;;;20.40;90.00;;;;;;5115814;28;19907;-49
2022/10/06 05:21:43;;;;;;;;;;;20.40;90.00;;;;;;5115814;28;19998;-49
2022/10/06 05:24:09;;;;;;;;;;;20.40;90.00;;;;;;5115977;28;19908;-46
2022/10/06 05:26:34;;;;;;;;;;;20.40;90.00;;;;;;5115509;28;19907;-48
2022/10/06 05:29:00;;;;;;;;;;;20.40;90.00;;;;;;5115255;28;19916;-48
2022/10/06 05:31:27;;;;;;;;;;;20.40;90.00;;;;;;5115376;28;19912;-46
2022/10/06 05:33:54;;;;;;;;;;;20.40;90.00;;;;;;5115660;28;19912;-47
2022/10/06 05:36:20;;;;;;;;;;;20.30;90.00;;;;;;5115495;28;19961;-48
2022/10/06 05:38:46;;;;;;;;;;;20.30;90.00;;;;;;5115197;28;19907;-47
2022/10/06 05:41:12;;;;;;;;;;;20.40;90.10;;;;;;5115474;28;19915;-46
2022/10/06 05:43:38;;;;;;;;;;;20.30;90.10;;;;;;5097153;28;19912;-47
2022/10/06 05:46:05;;;;;;;;;;;20.40;90.10;;;;;;5105562;28;19912;-46
2022/10/06 05:48:31;;;;;;;;;;;20.30;90.10;;;;;;5093429;28;19915;-45
2022/10/06 05:50:58;;;;;;;;;;;20.30;90.00;;;;;;5093281;28;19912;-46
2022/10/06 05:53:24;;;;;;;;;;;20.40;90.10;;;;;;5093552;28;19908;-46
2022/10/06 05:55:49;;;;;;;;;;;20.30;90.20;;;;;;5093429;28;20370;-45
2022/10/06 05:58:15;;;;;;;;;;;20.30;90.30;;;;;;5094836;28;19908;-47
2022/10/06 06:00:40;;;;;;;;;;;20.30;90.30;;;;;;5105608;28;19908;-47
2022/10/06 06:03:08;;;;;;;;;;;20.30;90.20;;;;;;5115301;28;19996;-46
2022/10/06 06:05:39;;;;;;;;;;;20.40;90.20;;;;;;5099143;28;20366;-47
2022/10/06 06:08:04;;;;;;;;;;;20.40;90.00;;;;;;5085006;28;19915;-46
2022/10/06 06:10:30;;;;;;;;;;;20.50;89.70;;;;;;5094979;28;19998;-44
2022/10/06 06:12:56;;;;;;;;;;;20.50;89.00;;;;;;5094613;28;19912;-43
2022/10/06 06:18:06;;;;;;;;;;;20.60;89.10;;;;;;5104713;28;19999;-44
2022/10/06 06:20:31;;;;;;;;;;;20.70;89.00;;;;;;5106713;28;20002;-48
2022/10/06 06:22:57;;;;;;;;;;;20.80;89.10;;;;;;5110993;28;19955;-46
2022/10/06 06:25:22;;;;;;;;;;;20.80;88.70;;;;;;5095745;28;20289;-46
2022/10/06 06:27:47;;;;;;;;;;;20.90;88.20;;;;;;5112261;28;20286;-46
2022/10/06 06:30:13;;;;;;;;;;;21.00;89.50;;;;;;5099363;28;19908;-47
2022/10/06 06:32:39;;;;;;;;;;;21.00;88.80;;;;;;5083194;28;19918;-48
2022/10/06 06:35:04;;;;;;;;;;;21.10;88.90;;;;;;5094123;28;19926;-51
2022/10/06 06:37:30;;;;;;;;;;;21.10;88.80;;;;;;5110919;28;19903;-50
2022/10/06 06:39:55;;;;;;;;;;;21.10;88.80;;;;;;5112087;28;19908;-48
2022/10/06 06:42:21;;;;;;;;;;;21.10;88.90;;;;;;5114657;28;20210;-49
2022/10/06 06:44:46;;;;;;;;;;;21.10;88.90;;;;;;5112132;28;19904;-46
2022/10/06 06:47:12;;;;;;;;;;;21.10;89.00;;;;;;5111447;28;19912;-49
2022/10/06 06:49:37;;;;;;;;;;;21.10;89.10;;;;;;5096314;28;19919;-46
2022/10/06 06:52:04;;;;;;;;;;;21.10;89.20;;;;;;5096192;28;19912;-52
2022/10/06 06:54:29;;;;;;;;;;;21.10;89.20;;;;;;5111623;28;20700;-49
2022/10/06 06:56:55;;;;;;;;;;;21.10;89.30;;;;;;5113896;28;19953;-48
2022/10/06 06:59:21;;;;;;;;;;;21.10;89.40;;;;;;5111613;28;19910;-47
2022/10/06 07:01:47;;;;;;;;;;;21.10;89.50;;;;;;5075323;28;19908;-52
2022/10/06 07:04:13;;;;;;;;;;;21.00;89.40;;;;;;5109093;28;19908;-49
2022/10/06 07:06:40;;;;;;;;;;;21.10;89.50;;;;;;5114131;28;19904;-48
2022/10/06 07:09:06;;;;;;;;;;;21.20;89.40;;;;;;5111084;28;19956;-51
2022/10/06 07:11:32;;;;;;;;;;;21.20;89.10;;;;;;5114219;28;19915;-45
2022/10/06 07:14:02;;;;;;;;;;;21.30;88.90;;;;;;5107532;28;19915;-44
2022/10/06 07:27:27;;;;;;;;;;;21.40;88.50;;;;;;5116013;28;19955;-45
2022/10/06 07:29:53;;;;;;;;;;;21.40;88.50;;;;;;5118240;28;19915;-46
2022/10/06 07:32:20;;;;;;;;;;;21.40;88.70;;;;;;5115725;28;19912;-44
2022/10/06 07:34:46;;;;;;;;;;;21.40;88.70;;;;;;5115517;28;20354;-47
2022/10/06 07:37:11;;;;;;;;;;;21.40;88.70;;;;;;5117963;28;19923;-47
2022/10/06 07:39:37;;;;;;;;;;;21.40;88.80;;;;;;5115366;28;19915;-46
2022/10/06 07:42:05;;;;;;;;;;;21.30;88.80;;;;;;5118083;28;20402;-46
2022/10/06 07:44:30;;;;;;;;;;;21.30;88.90;;;;;;5115755;28;19939;-49
2022/10/06 07:46:56;;;;;;;;;;;21.30;88.90;;;;;;5118166;28;19927;-47
2022/10/06 07:49:21;;;;;;;;;;;21.30;89.10;;;;;;5097257;28;19911;-46
2022/10/06 07:51:47;;;;;;;;;;;21.30;89.10;;;;;;5117719;28;19908;-46
2022/10/06 07:54:12;;;;;;;;;;;21.30;89.20;;;;;;5105185;28;19911;-45
2022/10/06 07:56:38;;;;;;;;;;;21.30;89.30;;;;;;5117607;28;20092;-44
2022/10/06 07:59:03;;;;;;;;;;;21.30;89.30;;;;;;5114328;28;19907;-48
2022/10/06 08:01:29;;;;;;;;;;;21.20;89.30;;;;;;5116103;28;20342;-46
2022/10/06 08:03:55;;;;;;;;;;;21.20;89.20;;;;;;5115380;28;19961;-46
2022/10/06 08:06:22;;;;;;;;;;;21.20;89.40;;;;;;5117670;28;19916;-49
2022/10/06 08:08:48;;;;;;;;;;;21.30;89.30;;;;;;5114512;28;19912;-46
2022/10/06 08:11:14;;;;;;;;;;;21.30;89.20;;;;;;5117373;28;19937;-49
2022/10/06 08:13:41;;;;;;;;;;;21.30;89.10;;;;;;5114308;28;20238;-46
2022/10/06 08:16:13;;;;;;;;;;;21.30;89.10;;;;;;5117123;28;20406;-48
2022/10/06 08:18:39;;;;;;;;;;;21.40;89.10;;;;;;5115357;28;19914;-45
2022/10/06 08:21:19;;;;;;;;;;;21.40;89.30;;;;;;5114140;28;20381;-46
2022/10/06 08:23:45;;;;;;;;;;;21.40;89.00;;;;;;5115303;28;19961;-46
2022/10/06 08:26:12;;;;;;;;;;;21.40;89.00;;;;;;5113735;28;19904;-47
2022/10/06 08:28:38;;;;;;;;;;;21.40;88.90;;;;;;5104271;28;19908;-47
2022/10/06 08:31:10;;;;;;;;;;;21.40;88.90;;;;;;5111764;28;19912;-46
2022/10/06 08:33:37;;;;;;;;;;;21.40;88.90;;;;;;5115941;28;19914;-51
2022/10/06 08:36:03;;;;;;;;;;;21.40;88.90;;;;;;5114476;28;19907;-45
2022/10/06 08:38:29;;;;;;;;;;;21.40;89.00;;;;;;5116691;28;19915;-46
2022/10/06 08:40:54;;;;;;;;;;;21.40;89.10;;;;;;5114205;28;19904;-45
2022/10/06 08:43:22;;;;;;;;;;;21.40;89.10;;;;;;5114284;28;19908;-44
2022/10/06 08:45:47;;;;;;;;;;;21.40;89.10;;;;;;5086200;28;20316;-44
2022/10/06 08:48:16;;;;;;;;;;;21.40;88.90;;;;;;5109600;28;19950;-45
2022/10/06 08:51:00;;;;;;;;;;;21.30;88.80;;;;;;5106045;28;19915;-47
2022/10/06 08:53:38;;;;;;;;;;;21.40;88.60;;;;;;5113047;28;19934;-45
2022/10/06 08:56:16;;;;;;;;;;;21.40;89.10;;;;;;5113977;28;20278;-49
2022/10/06 08:58:42;;;;;;;;;;;21.30;89.20;;;;;;5116308;28;19914;-50
2022/10/06 09:01:15;;;;;;;;;;;21.30;89.20;;;;;;5114423;28;19908;-47
2022/10/06 09:03:45;;;;;;;;;;;21.30;89.30;;;;;;5113945;28;20363;-49
2022/10/06 09:06:17;;;;;;;;;;;21.30;89.40;;;;;;5116822;28;20016;-47
2022/10/06 09:08:54;;;;;;;;;;;21.30;89.50;;;;;;5108841;28;20015;-51
2022/10/06 09:11:25;;;;;;;;;;;21.30;89.40;;;;;;5112519;28;19915;-50
2022/10/06 09:13:58;;;;;;;;;;;21.30;89.40;;;;;;5113695;28;19911;-46
2022/10/06 09:16:27;;;;;;;;;;;21.30;89.40;;;;;;5113428;28;20008;-48
2022/10/06 09:18:56;;;;;;;;;;;21.30;89.30;;;;;;5115949;28;19915;-46
2022/10/06 09:21:29;;;;;;;;;;;21.40;89.20;;;;;;5110755;28;19911;-49
2022/10/06 09:23:58;;;;;;;;;;;21.40;89.20;;;;;;5109877;28;19912;-51
2022/10/06 09:26:28;;;;;;;;;;;21.50;89.10;;;;;;5115999;28;19972;-46
2022/10/06 09:28:54;;;;;;;;;;;21.50;89.10;;;;;;5113590;28;19922;-48
2022/10/06 09:31:20;;;;;;;;;;;21.50;88.90;;;;;;5097679;28;20281;-49
2022/10/06 09:33:45;;;;;;;;;;;21.50;88.90;;;;;;5109287;28;19912;-48
2022/10/06 09:36:11;;;;;;;;;;;21.50;88.80;;;;;;5115791;28;19933;-46
2022/10/06 09:38:52;;;;;;;;;;;21.50;88.90;;;;;;5113399;28;19959;-49
2022/10/06 09:41:20;;;;;;;;;;;21.50;88.90;;;;;;5108180;28;20271;-47
2022/10/06 09:43:57;;;;;;;;;;;21.50;88.90;;;;;;5115281;28;19914;-48
2022/10/06 09:46:27;;;;;;;;;;;21.50;89.00;;;;;;5109828;28;19988;-48
2022/10/06 09:49:06;;;;;;;;;;;21.50;89.10;;;;;;5115611;28;19916;-47
2022/10/06 09:51:35;;;;;;;;;;;21.50;89.10;;;;;;5100437;28;20422;-51
2022/10/06 09:54:13;;;;;;;;;;;21.50;89.20;;;;;;5095226;28;19908;-49
2022/10/06 09:56:39;;;;;;;;;;;21.50;89.30;;;;;;5095010;28;19919;-52
2022/10/06 09:59:13;;;;;;;;;;;21.50;89.30;;;;;;5094418;28;20286;-48
2022/10/06 10:01:38;;;;;;;;;;;21.50;89.40;;;;;;5112091;28;19923;-48
2022/10/06 10:04:11;;;;;;;;;;;21.50;89.40;;;;;;5114966;28;19912;-47
2022/10/06 10:06:45;;;;;;;;;;;21.40;89.40;;;;;;5131183;27;20396;-49
2022/10/06 10:09:18;;;;;;;;;;;21.50;89.40;;;;;;5132177;28;19912;-47
2022/10/06 10:14:34;;;;;;;;;;;21.40;89.20;;;;;;5131607;27;19933;-50
2022/10/06 10:17:06;;;;;;;;;;;21.50;89.40;;;;;;5132451;28;19923;-47
2022/10/06 10:19:36;;;;;;;;;;;21.50;89.30;;;;;;5131414;27;20373;-47
2022/10/06 10:22:02;;;;;;;;;;;21.50;89.20;;;;;;5131506;27;20429;-44
2022/10/06 10:24:46;;;;;;;;;;;21.50;89.10;;;;;;5131740;28;20002;-45
2022/10/06 10:27:16;;;;;;;;;;;21.60;89.00;;;;;;5131093;27;20346;-45
2022/10/06 10:29:58;;;;;;;;;;;21.60;89.00;;;;;;5130589;27;19923;-60
2022/10/06 10:32:42;;;;;;;;;;;21.60;88.40;;;;;;5131644;27;19943;-46
2022/10/06 10:35:23;;;;;;;;;;;21.60;88.80;;;;;;5122911;27;20333;-50
2022/10/06 10:37:51;;;;;;;;;;;21.60;88.70;;;;;;5110996;28;19935;-49
2022/10/06 10:40:28;;;;;;;;;;;21.60;88.80;;;;;;5110670;28;19973;-46
2022/10/06 10:43:09;;;;;;;;;;;21.60;88.80;;;;;;5110778;28;20363;-46
2022/10/06 10:45:36;;;;;;;;;;;21.60;88.70;;;;;;5110626;28;20351;-44
2022/10/06 10:48:05;;;;;;;;;;;21.60;88.70;;;;;;5111013;28;19908;-45
2022/10/06 10:50:33;;;;;;;;;;;21.60;88.60;;;;;;5110561;28;20267;-46
2022/10/06 10:53:12;;;;;;;;;;;21.60;88.60;;;;;;5110507;28;20003;-47
2022/10/06 10:55:40;;;;;;;;;;;21.60;88.60;;;;;;5110310;28;20381;-44
2022/10/06 10:58:20;;;;;;;;;;;21.60;88.60;;;;;;5110678;28;19938;-44
2022/10/06 11:00:47;;;;;;;;;;;21.60;88.60;;;;;;5135108;27;19956;-44
2022/10/06 11:03:13;;;;;;;;;;;21.60;88.70;;;;;;5151726;27;20316;-46
2022/10/06 11:05:57;;;;;;;;;;;21.60;88.70;;;;;;5151114;27;19919;-45
2022/10/06 11:08:26;;;;;;;;;;;21.50;88.60;;;;;;5151156;27;19908;-44
2022/10/06 11:10:56;;;;;;;;;;;21.50;88.70;;;;;;5151583;27;19933;-44
2022/10/06 11:13:43;;;;;;;;;;;21.50;88.70;;;;;;5151396;27;19914;-46
2022/10/06 11:16:28;;;;;;;;;;;21.50;88.60;;;;;;5148728;27;19986;-46
2022/10/06 11:18:53;;;;;;;;;;;21.50;88.60;;;;;;5137459;27;19908;-47
2022/10/06 11:21:25;;;;;;;;;;;21.50;88.60;;;;;;5137531;27;19915;-45
2022/10/06 11:23:54;;;;;;;;;;;21.50;88.60;;;;;;5137544;27;20304;-46
2022/10/06 11:26:23;;;;;;;;;;;21.50;88.50;;;;;;5136981;27;19912;-45
2022/10/06 11:28:49;;;;;;;;;;;21.50;88.50;;;;;;5136946;27;20239;-45
2022/10/06 11:31:17;;;;;;;;;;;21.50;88.40;;;;;;5116586;27;19969;-44
2022/10/06 11:33:53;;;;;;;;;;;21.60;88.50;;;;;;5116228;28;19962;-46
2022/10/06 11:36:23;;;;;;;;;;;21.60;88.30;;;;;;5115474;27;19916;-47
2022/10/06 11:38:55;;;;;;;;;;;21.60;88.30;;;;;;5116742;28;19908;-47
2022/10/06 11:41:33;;;;;;;;;;;21.60;88.20;;;;;;5116467;27;19908;-47
2022/10/06 11:44:12;;;;;;;;;;;21.60;88.30;;;;;;5115706;27;19966;-48
2022/10/06 11:46:41;;;;;;;;;;;21.60;88.30;;;;;;5116871;28;19914;-47
2022/10/06 11:49:25;;;;;;;;;;;21.60;88.30;;;;;;5116347;27;19911;-49
2022/10/06 11:51:51;;;;;;;;;;;21.60;88.30;;;;;;5116218;28;19908;-46
2022/10/06 11:54:35;;;;;;;;;;;21.70;88.30;;;;;;5116294;27;19907;-47
2022/10/06 11:57:00;;;;;;;;;;;21.70;88.30;;;;;;5116402;28;19939;-46
2022/10/06 11:59:27;;;;;;;;;;;21.60;88.30;;;;;;5116698;27;19907;-46
2022/10/06 12:01:53;;;;;;;;;;;21.60;88.50;;;;;;5121781;27;19908;-47
2022/10/06 12:04:19;;;;;;;;;;;21.60;88.50;;;;;;5116210;28;19904;-46
2022/10/06 12:06:44;;;;;;;;;;;21.60;88.60;;;;;;5117484;27;20372;-47
2022/10/06 12:09:22;;;;;;;;;;;21.60;88.70;;;;;;5116381;28;19965;-46
2022/10/06 12:11:49;;;;;;;;;;;21.60;89.10;;;;;;5115278;27;19908;-46
2022/10/06 12:14:35;;;;;;;;;;;21.60;88.70;;;;;;5117396;27;19966;-48
2022/10/06 12:17:20;;;;;;;;;;;21.60;88.80;;;;;;5101630;28;19943;-45
2022/10/06 12:20:05;;;;;;;;;;;21.60;88.80;;;;;;5100658;27;19941;-51
2022/10/06 12:22:53;;;;;;;;;;;21.60;88.80;;;;;;5117056;27;19930;-47
2022/10/06 12:25:19;;;;;;;;;;;21.60;89.00;;;;;;5104880;28;19908;-50
2022/10/06 12:28:03;;;;;;;;;;;21.60;88.80;;;;;;5115003;27;19911;-46
2022/10/06 12:30:41;;;;;;;;;;;21.60;88.80;;;;;;5115211;28;19908;-48
2022/10/06 12:33:14;;;;;;;;;;;21.60;88.80;;;;;;5114696;27;20277;-47
2022/10/06 12:35:39;;;;;;;;;;;21.60;88.80;;;;;;5115810;28;19903;-46
2022/10/06 12:38:25;;;;;;;;;;;21.60;88.70;;;;;;5114971;27;19919;-48
2022/10/06 12:40:54;;;;;;;;;;;21.60;88.70;;;;;;5115158;28;19904;-45
2022/10/06 12:43:22;;;;;;;;;;;21.70;88.60;;;;;;5115013;28;19907;-46
2022/10/06 12:45:56;;;;;;;;;;;21.70;88.60;;;;;;5115374;28;20027;-45
2022/10/06 12:48:30;;;;;;;;;;;21.70;88.60;;;;;;5114143;27;20379;-44
2022/10/06 12:51:03;;;;;;;;;;;21.70;88.70;;;;;;5114731;27;19904;-53
2022/10/06 12:53:31;;;;;;;;;;;21.70;88.60;;;;;;5115405;27;19904;-40
2022/10/06 12:56:00;;;;;;;;;;;21.70;88.70;;;;;;5115643;28;20350;-40
2022/10/06 12:58:27;;;;;;;;;;;21.70;88.70;;;;;;5113645;28;19918;-39
2022/10/06 13:00:58;;;;;;;;;;;21.70;88.70;;;;;;5128405;27;19934;-40
2022/10/06 13:03:24;;;;;;;;;;;21.70;88.80;;;;;;5114783;27;19918;-39
2022/10/06 13:05:50;;;;;;;;;;;21.70;88.90;;;;;;5114540;27;20342;-40
2022/10/06 13:08:20;;;;;;;;;;;21.70;88.90;;;;;;5115070;28;19908;-43
2022/10/06 13:10:46;;;;;;;;;;;21.70;88.80;;;;;;5114290;27;19957;-44
2022/10/06 13:13:19;;;;;;;;;;;21.70;88.80;;;;;;5114305;28;19912;-45
2022/10/06 13:15:44;;;;;;;;;;;21.70;88.80;;;;;;5115134;27;20304;-45
2022/10/06 13:18:13;;;;;;;;;;;21.70;88.90;;;;;;5114514;27;19904;-44
2022/10/06 13:20:40;;;;;;;;;;;21.60;89.00;;;;;;5113427;27;19907;-44
2022/10/06 13:23:23;;;;;;;;;;;21.60;89.10;;;;;;5114371;28;19961;-42
2022/10/06 13:25:51;;;;;;;;;;;21.60;89.20;;;;;;5114013;27;19968;-42
2022/10/06 13:28:27;;;;;;;;;;;21.50;89.20;;;;;;5114627;28;19903;-43
2022/10/06 13:30:57;;;;;;;;;;;21.50;89.30;;;;;;5114184;28;19998;-44
2022/10/06 13:33:24;;;;;;;;;;;21.60;89.20;;;;;;5114414;28;20010;-41
2022/10/06 13:35:51;;;;;;;;;;;21.50;89.20;;;;;;5112831;27;20002;-42
2022/10/06 13:38:17;;;;;;;;;;;21.60;89.10;;;;;;5114113;28;19915;-44
2022/10/06 13:40:43;;;;;;;;;;;21.60;89.10;;;;;;5113710;28;19965;-43
2022/10/06 13:43:13;;;;;;;;;;;21.60;89.00;;;;;;5114178;28;20261;-44
2022/10/06 13:45:41;;;;;;;;;;;21.70;88.90;;;;;;5113315;28;20002;-45
2022/10/06 13:48:17;;;;;;;;;;;21.70;88.80;;;;;;5113971;28;19955;-43
2022/10/06 13:50:47;;;;;;;;;;;21.70;88.70;;;;;;5113390;27;20370;-44
2022/10/06 13:53:39;;;;;;;;;;;21.70;88.40;;;;;;5116431;27;19903;-43
2022/10/06 13:56:20;;;;;;;;;;;21.70;88.50;;;;;;5114175;27;19960;-43
2022/10/06 13:58:46;;;;;;;;;;;21.80;88.50;;;;;;5118117;28;19912;-41
2022/10/06 14:01:12;;;;;;;;;;;21.70;88.50;;;;;;5129999;27;20234;-42
2022/10/06 14:03:37;;;;;;;;;;;21.70;88.40;;;;;;5119223;28;19904;-42
2022/10/06 14:06:03;;;;;;;;;;;21.70;88.40;;;;;;5114173;28;19923;-44
2022/10/06 14:08:29;;;;;;;;;;;21.70;88.50;;;;;;5114287;28;20031;-43
2022/10/06 14:10:55;;;;;;;;;;;21.70;88.50;;;;;;5114311;28;19908;-42
2022/10/06 14:13:25;;;;;;;;;;;21.70;88.50;;;;;;5114456;28;19904;-43
2022/10/06 14:15:57;;;;;;;;;;;21.80;88.60;;;;;;5113969;28;19911;-43
2022/10/06 14:18:32;;;;;;;;;;;21.80;88.60;;;;;;5113884;28;19904;-43
2022/10/06 14:20:57;;;;;;;;;;;21.70;88.60;;;;;;5117439;28;19948;-43
2022/10/06 14:23:41;;;;;;;;;;;21.70;88.70;;;;;;5134675;28;19907;-43
2022/10/06 14:26:07;;;;;;;;;;;21.70;88.70;;;;;;5116032;28;19961;-47
2022/10/06 14:28:33;;;;;;;;;;;21.70;88.90;;;;;;5116073;28;19914;-42
2022/10/06 14:30:58;;;;;;;;;;;21.70;89.50;;;;;;5134675;28;20300;-41
2022/10/06 14:33:24;;;;;;;;;;;21.70;88.90;;;;;;5134638;28;19903;-41
2022/10/06 14:35:50;;;;;;;;;;;21.70;89.00;;;;;;5112028;28;19957;-44
2022/10/06 14:38:15;;;;;;;;;;;21.60;89.00;;;;;;5110659;28;19950;-41
2022/10/06 14:40:41;;;;;;;;;;;21.60;89.10;;;;;;5111985;28;19915;-41
2022/10/06 14:43:07;;;;;;;;;;;21.60;89.30;;;;;;5111931;28;19904;-41